»·PEaware :: ASA39 KLAS-KBOI

ASA39 :: KLAS-KBOI

FLIGHT INFORMATION

Flight Status: Arrived
Operator:
Alaska Airlines
More flights by this operator :: More flights under this callsign
Pilot: Steve F. (26981)
Aircraft: BOEING 737-800
(B738)
More flights by this aircraft type
Origin: KLAS McCarran Intl
United States
Destination: KBOI Boise Air Terminal/Gowen
United States
More flights between these airports :: More routes between these airports
Route: TRALR9 MLF ELY BROPH SPUUD3
File this flight plan on PilotEdge
Remarks:
Altitude:
(Current/Filed)
39,000ft
Speed:
(Current/Filed)
430kts
Departed: 06-Sep-20 02:30 PM
Arrived: 06-Sep-20 03:56 PM
Distance/Time
Traveled:
452nm/1:26
Distance/Time
To Go:
Arrived

Flight Plot

Page will automatically refresh every two minutes.

Flight plan parsing failed; only flown route is shown


Map Options




Map Legend


Flown Route
Filed Route
Departure Airport
Arrival Airport
Navaid (VOR, NDB)
Fix

Horizontal Profiles

Position Reports

Time Latitude Longitude Heading Altitude Ground
Speed
06-Sep-20 14:19 36.080709 -115.148632 154 2189ft 0kts
06-Sep-20 14:20 36.080707 -115.148631 154 2189ft 0kts
06-Sep-20 14:21 36.080706 -115.148630 154 2189ft 0kts
06-Sep-20 14:22 36.080704 -115.148629 154 2189ft 0kts
06-Sep-20 14:23 36.080703 -115.148629 154 2189ft 0kts
06-Sep-20 14:24 36.079151 -115.150152 226 2189ft 14kts
06-Sep-20 14:25 36.077942 -115.153816 270 2189ft 13kts
06-Sep-20 14:26 36.077947 -115.158590 269 2189ft 13kts
06-Sep-20 14:27 36.077152 -115.161186 180 2189ft 0kts
06-Sep-20 14:28 36.076587 -115.161184 175 2189ft 10kts
06-Sep-20 14:29 36.076345 -115.131557 89 2227ft 180kts
06-Sep-20 14:30 36.073010 -115.066303 93 4649ft 205kts
06-Sep-20 14:31 36.076185 -114.987854 85 5950ft 263kts
06-Sep-20 14:32 36.084914 -114.890062 76 8010ft 296kts
06-Sep-20 14:33 36.102968 -114.788461 76 10560ft 309kts
06-Sep-20 14:34 36.122536 -114.673312 77 11599ft 374kts
06-Sep-20 14:35 36.144499 -114.544484 77 13917ft 388kts
06-Sep-20 14:36 36.166431 -114.411906 78 16468ft 397kts
06-Sep-20 14:37 36.188492 -114.277398 76 18904ft 404kts
06-Sep-20 14:38 36.231337 -114.146638 63 20929ft 416kts
06-Sep-20 14:39 36.282428 -114.015687 63 22720ft 427kts
06-Sep-20 14:40 36.334640 -113.881875 63 24228ft 437kts
06-Sep-20 14:41 36.387701 -113.743895 64 25528ft 448kts
06-Sep-20 14:42 36.460432 -113.620570 29 26732ft 455kts
06-Sep-20 14:43 36.582263 -113.572926 13 27809ft 465kts
06-Sep-20 14:44 36.709061 -113.535154 13 28775ft 474kts
06-Sep-20 14:45 36.837634 -113.496513 13 29899ft 476kts
06-Sep-20 14:46 36.967006 -113.457414 13 31208ft 475kts
06-Sep-20 14:47 37.094772 -113.418644 13 32526ft 472kts
06-Sep-20 14:48 37.222458 -113.379733 13 33826ft 470kts
06-Sep-20 14:49 37.349040 -113.340944 13 35082ft 467kts
06-Sep-20 14:50 37.474711 -113.301178 13 36270ft 465kts
06-Sep-20 14:51 37.599980 -113.260802 13 37379ft 463kts
06-Sep-20 14:52 37.724826 -113.220438 13 38405ft 461kts
06-Sep-20 14:53 37.848553 -113.180484 13 39310ft 460kts
06-Sep-20 14:54 37.972609 -113.140190 13 39306ft 457kts
06-Sep-20 14:55 38.096037 -113.100008 12 39292ft 457kts
06-Sep-20 14:56 38.218925 -113.059773 12 39301ft 457kts
06-Sep-20 14:57 38.342965 -113.043446 339 39284ft 450kts
06-Sep-20 14:58 38.431609 -113.149229 303 39280ft 445kts
06-Sep-20 14:59 38.500297 -113.281170 303 39278ft 446kts
06-Sep-20 15:00 38.569025 -113.413402 303 39277ft 446kts
06-Sep-20 15:01 38.637905 -113.545725 302 39279ft 446kts
06-Sep-20 15:02 38.706462 -113.678390 302 39293ft 447kts
06-Sep-20 15:03 38.774667 -113.811045 302 39306ft 446kts
06-Sep-20 15:04 38.842962 -113.944466 302 39321ft 446kts
06-Sep-20 15:05 38.911157 -114.078257 302 39343ft 448kts
06-Sep-20 15:06 38.979082 -114.212084 302 39364ft 448kts
06-Sep-20 15:07 39.047057 -114.346572 302 39387ft 447kts
06-Sep-20 15:08 39.114615 -114.480801 302 39406ft 447kts
06-Sep-20 15:09 39.182360 -114.615416 302 39422ft 447kts
06-Sep-20 15:10 39.249375 -114.750043 301 39428ft 447kts
06-Sep-20 15:11 39.344803 -114.843180 349 39433ft 455kts
06-Sep-20 15:12 39.472098 -114.849322 358 39412ft 456kts
06-Sep-20 15:13 39.599229 -114.850524 358 39401ft 456kts
06-Sep-20 15:14 39.726221 -114.851581 358 39391ft 456kts
06-Sep-20 15:15 39.852949 -114.852591 358 39380ft 455kts
06-Sep-20 15:16 39.979918 -114.853593 358 39367ft 455kts
06-Sep-20 15:17 40.106177 -114.854581 357 39354ft 453kts
06-Sep-20 15:18 40.232541 -114.855582 357 39342ft 453kts
06-Sep-20 15:19 40.358775 -114.856582 357 39331ft 453kts
06-Sep-20 15:20 40.484598 -114.857580 357 39322ft 452kts
06-Sep-20 15:21 40.610718 -114.858587 357 39316ft 452kts
06-Sep-20 15:22 40.736858 -114.859595 357 39312ft 452kts
06-Sep-20 15:23 40.862586 -114.860605 357 39299ft 452kts
06-Sep-20 15:24 40.987983 -114.861617 357 39292ft 451kts
06-Sep-20 15:25 41.113648 -114.862634 357 39292ft 450kts
06-Sep-20 15:26 41.238740 -114.863650 357 39292ft 449kts
06-Sep-20 15:28 41.364097 -114.864672 357 39289ft 449kts
06-Sep-20 15:29 41.488793 -114.865693 356 39288ft 448kts
06-Sep-20 15:30 41.613535 -114.866718 356 39284ft 447kts
06-Sep-20 15:31 41.738356 -114.867748 356 39281ft 447kts
06-Sep-20 15:32 41.862838 -114.868781 356 38901ft 451kts
06-Sep-20 15:33 41.988547 -114.869832 357 36514ft 450kts
06-Sep-20 15:34 42.114241 -114.870879 357 34115ft 453kts
06-Sep-20 15:35 42.240893 -114.871943 358 31721ft 458kts
06-Sep-20 15:36 42.369306 -114.873021 358 29316ft 463kts
06-Sep-20 15:37 42.498965 -114.874111 358 26921ft 471kts
06-Sep-20 15:38 42.631065 -114.875233 358 24517ft 470kts
06-Sep-20 15:39 42.748344 -114.922534 319 22613ft 441kts
06-Sep-20 15:40 42.834182 -115.037800 313 20910ft 427kts
06-Sep-20 15:41 42.914495 -115.153663 312 19389ft 415kts
06-Sep-20 15:42 42.991856 -115.265369 312 17371ft 393kts
06-Sep-20 15:43 43.064994 -115.372090 311 15067ft 378kts
06-Sep-20 15:43 43.124081 -115.458559 311 13204ft 366kts
06-Sep-20 15:45 43.203144 -115.574758 311 11181ft 339kts
06-Sep-20 15:46 43.263363 -115.662888 311 10642ft 300kts
06-Sep-20 15:46 43.312529 -115.727919 315 9748ft 290kts
06-Sep-20 15:48 43.377631 -115.811162 315 8974ft 265kts
06-Sep-20 15:48 43.420740 -115.867008 315 8560ft 242kts
06-Sep-20 15:49 43.466273 -115.931440 301 7858ft 219kts
06-Sep-20 15:50 43.490689 -116.004726 294 6689ft 202kts
06-Sep-20 15:51 43.511580 -116.065399 295 5736ft 165kts
06-Sep-20 15:52 43.530857 -116.122083 295 4216ft 153kts
06-Sep-20 15:53 43.549117 -116.175297 295 3331ft 154kts
06-Sep-20 15:54 43.565409 -116.222811 295 2879ft 57kts
06-Sep-20 15:55 43.568471 -116.228198 109 2879ft 10kts
06-Sep-20 15:56 43.566504 -116.221855 51 2879ft 12kts
06-Sep-20 15:57 43.567404 -116.221129 30 2879ft 0kts

Navigation Log

Ident Type
Flight plan parsing failed, navigation log unavailable